Time;durP1;ratioP1;P1;durP2;ratioP2;P2;SDS_P1;SDS_P2;PMS_P1;PMS_P2;Temp;Humidity;BMP_temperature;BMP_pressure;BME280_temperature;BME280_humidity;BME280_pressure;Samples;Min_cycle;Max_cycle;Signal;HPM_P1;HPM_P2
2022/06/28 00:00:09;;;;;;;84.95;36.03;;;;;;;-144.47;62.29;53191.78;5012765;28;20505;-70
2022/06/28 00:02:34;;;;;;;85.97;36.10;;;;;;;-144.47;62.16;53197.72;5018823;28;20040;-71
2022/06/28 00:05:00;;;;;;;88.60;39.08;;;;;;;-144.47;62.85;53189.78;5021347;28;20467;-67
2022/06/28 00:07:26;;;;;;;84.38;38.17;;;;;;;-144.47;62.46;53203.69;5027699;28;20027;-71
2022/06/28 00:09:51;;;;;;;95.82;39.58;;;;;;;-144.47;63.08;53189.78;5030433;28;20022;-67
2022/06/28 00:12:16;;;;;;;91.53;39.10;;;;;;;-144.47;63.04;53205.66;5027286;28;20435;-66
2022/06/28 00:17:26;;;;;;;87.80;37.70;;;;;;;-144.47;63.48;53195.75;5011471;28;20044;-71
2022/06/28 00:19:51;;;;;;;93.43;38.53;;;;;;;-144.47;63.78;53211.63;5010471;28;20491;-69
2022/06/28 00:22:17;;;;;;;98.30;41.00;;;;;;;-144.47;63.84;53171.91;5009196;28;20024;-70
2022/06/28 00:24:42;;;;;;;90.75;40.15;;;;;;;-144.47;63.92;53169.91;5009966;28;20030;-70
2022/06/28 00:27:07;;;;;;;97.68;40.10;;;;;;;-144.47;64.18;53197.72;5023054;28;20065;-69
2022/06/28 00:29:33;;;;;;;93.22;37.67;;;;;;;-144.47;64.27;53221.56;5010035;28;20029;-66
2022/06/28 00:31:58;;;;;;;99.13;40.47;;;;;;;-144.47;64.77;53231.50;5011735;28;20159;-67
2022/06/28 00:34:23;;;;;;;94.95;40.13;;;;;;;-144.47;64.54;53197.72;5018099;28;20029;-70
2022/06/28 00:36:49;;;;;;;89.00;39.83;;;;;;;-144.47;64.22;53171.91;5012254;28;20065;-69
2022/06/28 00:39:14;;;;;;;94.97;40.20;;;;;;;-144.47;63.94;53211.63;5010710;28;20033;-68
2022/06/28 00:41:41;;;;;;;98.80;40.00;;;;;;;-144.47;64.06;53181.84;5002931;28;20044;-69
2022/06/28 00:44:07;;;;;;;92.38;39.58;;;;;;;-144.47;64.16;53223.56;5017763;28;20033;-70
2022/06/28 00:46:35;;;;;;;99.72;42.03;;;;;;;-144.47;64.38;53203.69;5022519;28;20022;-66
2022/06/28 00:49:02;;;;;;;92.75;40.13;;;;;;;-144.47;64.11;53219.56;5022013;28;20036;-70
2022/06/28 00:51:28;;;;;;;93.93;42.03;;;;;;;-144.47;64.14;53225.53;5010309;28;20436;-68
2022/06/28 00:53:54;;;;;;;99.57;43.33;;;;;;;-144.47;64.60;53205.66;5010088;28;20033;-68
2022/06/28 00:56:20;;;;;;;96.72;40.42;;;;;;;-144.47;64.74;53201.69;5014837;28;20025;-69
2022/06/28 00:58:45;;;;;;;98.60;41.92;;;;;;;-144.47;64.87;53209.66;5029663;28;20029;-67
2022/06/28 01:01:11;;;;;;;98.72;41.42;;;;;;;-144.47;64.68;53221.56;5015853;28;20034;-71
2022/06/28 01:03:36;;;;;;;98.97;41.60;;;;;;;-144.47;65.32;53213.63;5017894;28;20097;-68
2022/06/28 01:06:02;;;;;;;94.38;40.10;;;;;;;-144.47;64.59;53195.75;5008926;28;20017;-67
2022/06/28 01:08:27;;;;;;;94.85;42.28;;;;;;;-144.47;65.05;53219.56;4991363;28;20032;-68
2022/06/28 01:10:53;;;;;;;96.20;42.28;;;;;;;-144.47;64.17;53195.75;5009603;28;20026;-68
2022/06/28 01:13:18;;;;;;;101.88;43.30;;;;;;;-144.47;64.17;53225.53;5020902;28;20083;-67
2022/06/28 01:15:44;;;;;;;100.38;42.95;;;;;;;-144.47;64.27;53189.78;5011398;28;20495;-70
2022/06/28 01:18:11;;;;;;;107.07;45.53;;;;;;;-144.47;63.96;53205.66;5009392;28;20070;-70
2022/06/28 01:20:39;;;;;;;100.93;44.40;;;;;;;-144.47;63.88;53211.63;5010415;28;20056;-69
2022/06/28 01:23:05;;;;;;;102.13;43.33;;;;;;;-144.47;64.12;53187.78;5007012;28;20395;-68
2022/06/28 01:25:31;;;;;;;102.18;46.08;;;;;;;-144.47;65.20;53219.56;5009075;28;20052;-68
2022/06/28 01:27:56;;;;;;;106.82;46.80;;;;;;;-144.47;65.73;53195.75;5021095;28;20112;-67
2022/06/28 01:30:22;;;;;;;101.75;43.53;;;;;;;-144.47;65.70;53233.47;4991894;28;20491;-69
2022/06/28 01:32:48;;;;;;;99.50;43.17;;;;;;;-144.47;66.20;53211.63;5021698;28;20033;-68
2022/06/28 01:35:14;;;;;;;103.28;44.05;;;;;;;-144.47;66.73;53239.44;5009481;28;20425;-68
2022/06/28 01:37:40;;;;;;;96.53;43.47;;;;;;;-144.47;66.72;53217.59;5003229;28;20029;-68
2022/06/28 01:40:06;;;;;;;96.43;40.30;;;;;;;-144.47;67.98;53175.88;5002398;28;20034;-70
2022/06/28 01:42:32;;;;;;;99.25;43.35;;;;;;;-144.47;68.46;53231.50;5000914;28;20083;-67
2022/06/28 01:44:59;;;;;;;90.28;41.38;;;;;;;-144.47;68.45;53185.81;5007546;28;20026;-66
2022/06/28 01:47:26;;;;;;;93.88;40.85;;;;;;;-144.47;68.83;53249.38;5008716;28;20030;-70
2022/06/28 01:49:53;;;;;;;95.63;41.50;;;;;;;-144.47;69.25;53195.75;5008640;28;20407;-66
2022/06/28 01:52:18;;;;;;;87.10;39.70;;;;;;;-144.47;69.68;53211.63;5021767;28;20049;-68
2022/06/28 01:54:44;;;;;;;97.15;41.88;;;;;;;-144.47;69.59;53235.47;5009325;28;20414;-69
2022/06/28 01:57:09;;;;;;;87.75;40.00;;;;;;;-144.47;69.62;53229.50;5021285;28;20421;-70
2022/06/28 01:59:37;;;;;;;87.03;40.35;;;;;;;-144.47;69.74;53239.44;5014955;28;20027;-71
2022/06/28 02:02:03;;;;;;;95.25;40.47;;;;;;;-144.47;70.48;53243.41;5014972;28;20026;-70
2022/06/28 02:04:29;;;;;;;96.40;41.38;;;;;;;-144.47;69.99;53247.38;5008660;28;20033;-69
2022/06/28 02:06:55;;;;;;;87.78;39.95;;;;;;;-144.47;69.77;53225.53;5009020;28;20149;-70
2022/06/28 02:09:21;;;;;;;91.38;39.72;;;;;;;-144.47;69.75;53233.47;5021444;28;20026;-70
2022/06/28 02:11:47;;;;;;;85.88;39.20;;;;;;;-144.47;70.17;53237.44;5007987;28;20028;-70
2022/06/28 02:14:12;;;;;;;80.70;38.47;;;;;;;-144.47;70.64;53223.56;5015556;28;20532;-68
2022/06/28 02:16:38;;;;;;;74.40;35.90;;;;;;;-144.47;70.45;53241.44;5014419;28;20052;-70
2022/06/28 02:19:04;;;;;;;78.05;35.80;;;;;;;-144.47;71.00;53237.44;5008596;28;20551;-70
2022/06/28 02:21:40;;;;;;;82.53;37.80;;;;;;;-144.47;71.03;53237.44;5008460;28;20092;-71
2022/06/28 02:24:07;;;;;;;73.35;36.63;;;;;;;-144.47;69.25;53225.53;5007320;28;21853;-68
2022/06/28 02:26:33;;;;;;;70.20;36.05;;;;;;;-144.47;69.74;53217.59;5021701;28;20045;-66
2022/06/28 02:29:00;;;;;;;73.45;36.65;;;;;;;-144.47;70.52;53233.47;5017818;28;20544;-66
2022/06/28 02:31:25;;;;;;;72.15;34.78;;;;;;;-144.47;69.57;53267.25;5019073;28;20037;-71
2022/06/28 02:33:51;;;;;;;77.93;36.70;;;;;;;-144.47;70.09;53249.38;5019106;28;20026;-68
2022/06/28 02:41:38;;;;;;;79.43;36.17;;;;;;;-144.47;71.04;53239.44;5004855;28;20026;-68
2022/06/28 02:44:03;;;;;;;69.40;33.42;;;;;;;-144.47;71.20;53207.66;5032366;28;20022;-66
2022/06/28 02:46:29;;;;;;;68.35;35.17;;;;;;;-144.47;70.87;53229.50;5013554;28;20080;-69
2022/06/28 02:48:54;;;;;;;65.93;34.65;;;;;;;-144.47;71.18;53225.53;5005210;28;20040;-68
2022/06/28 02:51:20;;;;;;;71.63;35.45;;;;;;;-144.47;71.85;53203.69;5013972;28;20025;-71
2022/06/28 02:53:46;;;;;;;70.82;34.58;;;;;;;-144.47;72.08;53237.44;5021112;28;20392;-67
2022/06/28 02:56:12;;;;;;;72.40;35.35;;;;;;;-144.47;71.77;53221.56;5024945;28;20030;-69
2022/06/28 02:58:37;;;;;;;61.42;32.03;;;;;;;-144.47;71.83;53261.28;5012028;28;20080;-70
2022/06/28 03:01:03;;;;;;;64.07;32.92;;;;;;;-144.47;71.45;53253.34;5015442;28;20069;-70
2022/06/28 03:03:28;;;;;;;67.05;33.15;;;;;;;-144.47;71.60;53201.69;5021095;28;20514;-67
2022/06/28 03:05:53;;;;;;;70.07;34.92;;;;;;;-144.47;71.53;53217.59;5011805;28;20109;-70
2022/06/28 03:08:19;;;;;;;73.40;34.70;;;;;;;-144.47;72.06;53231.50;5007846;28;20085;-68
2022/06/28 03:10:44;;;;;;;62.70;33.00;;;;;;;-144.47;71.74;53271.22;5011312;28;20408;-69
2022/06/28 03:13:09;;;;;;;66.28;33.03;;;;;;;-144.47;71.66;53233.47;5011474;28;20036;-68
2022/06/28 03:15:35;;;;;;;62.92;34.55;;;;;;;-144.47;72.53;53253.34;5028342;28;20450;-67
2022/06/28 03:18:01;;;;;;;62.65;32.53;;;;;;;-144.47;72.45;53269.22;5031321;28;20025;-67
2022/06/28 03:20:28;;;;;;;66.53;33.17;;;;;;;-144.47;72.40;53251.34;5027154;28;20033;-68
2022/06/28 03:22:54;;;;;;;59.58;31.70;;;;;;;-144.47;72.03;53249.38;4991589;28;20018;-71
2022/06/28 03:25:19;;;;;;;65.95;33.38;;;;;;;-144.47;72.56;53273.22;5015054;28;20021;-70
2022/06/28 03:27:45;;;;;;;63.45;32.72;;;;;;;-144.47;72.32;53227.53;5020468;28;20032;-69
2022/06/28 03:30:10;;;;;;;61.08;33.40;;;;;;;-144.47;71.83;53209.66;5011475;28;20021;-70
2022/06/28 03:32:35;;;;;;;61.38;31.55;;;;;;;-144.47;72.38;53233.47;5021973;28;20066;-69
2022/06/28 03:35:01;;;;;;;60.88;31.02;;;;;;;-144.47;72.31;53273.22;5027044;28;20048;-68
2022/06/28 03:37:26;;;;;;;60.10;31.15;;;;;;;-144.47;71.73;53231.50;5011687;28;20021;-70
2022/06/28 03:39:52;;;;;;;52.30;29.40;;;;;;;-144.47;71.18;53267.25;5011222;28;20431;-67
2022/06/28 03:42:17;;;;;;;52.60;28.90;;;;;;;-144.47;70.91;53237.44;5021364;28;20028;-67
2022/06/28 03:44:42;;;;;;;55.83;29.52;;;;;;;-144.47;71.30;53225.53;5013455;28;20029;-71
2022/06/28 03:47:08;;;;;;;51.13;29.13;;;;;;;-144.47;71.53;53239.44;4992399;28;20053;-69
2022/06/28 03:49:33;;;;;;;51.80;28.23;;;;;;;-144.47;71.29;53259.31;5013841;28;20478;-68
2022/06/28 03:51:59;;;;;;;52.88;29.08;;;;;;;-144.47;70.87;53265.25;5010599;28;20053;-69
2022/06/28 03:54:25;;;;;;;48.72;27.10;;;;;;;-144.47;70.44;53283.13;5004740;28;20022;-67
2022/06/28 03:56:51;;;;;;;51.55;27.73;;;;;;;-144.47;70.51;53219.56;5008578;28;20108;-67
2022/06/28 03:59:16;;;;;;;56.97;28.45;;;;;;;-144.47;69.82;53275.19;5010101;28;20021;-68
2022/06/28 04:01:41;;;;;;;48.58;26.73;;;;;;;-144.47;69.54;53249.38;5008409;28;20022;-70
2022/06/28 04:04:07;;;;;;;53.72;28.33;;;;;;;-144.47;69.88;53209.66;5011723;28;20033;-68
2022/06/28 04:06:32;;;;;;;38.20;22.17;;;;;;;-144.47;67.87;53259.31;4998911;28;20056;-70
2022/06/28 04:08:58;;;;;;;35.95;20.58;;;;;;;-144.47;67.80;53241.44;5011045;28;20057;-69
2022/06/28 04:11:23;;;;;;;30.88;16.65;;;;;;;-144.47;66.56;53265.25;5017214;28;20044;-68
2022/06/28 04:13:51;;;;;;;25.05;14.90;;;;;;;-144.47;66.17;53271.22;5010826;28;20018;-67
2022/06/28 04:16:18;;;;;;;25.83;12.57;;;;;;;-144.47;65.80;53223.56;5014022;28;20095;-68
2022/06/28 04:18:44;;;;;;;22.75;9.38;;;;;;;-144.47;64.52;53263.28;5013017;28;20088;-66
2022/06/28 04:21:11;;;;;;;15.10;8.90;;;;;;;-144.47;64.65;53271.22;5009771;28;20026;-67
2022/06/28 04:23:37;;;;;;;16.77;8.85;;;;;;;-144.47;64.70;53259.31;5016543;28;20033;-68
2022/06/28 04:26:03;;;;;;;13.07;9.07;;;;;;;-144.47;65.17;53243.41;5009674;28;20089;-68
2022/06/28 04:28:29;;;;;;;18.13;8.57;;;;;;;-144.47;65.23;53253.34;4995207;28;20074;-67
2022/06/28 04:30:55;;;;;;;16.15;9.38;;;;;;;-144.47;65.28;53285.13;5007343;28;20133;-69
2022/06/28 04:33:20;;;;;;;15.25;8.48;;;;;;;-144.47;65.46;53263.28;5008013;28;20017;-68
2022/06/28 04:35:45;;;;;;;13.63;8.27;;;;;;;-144.47;65.74;53261.28;4999932;28;20025;-68
2022/06/28 04:38:11;;;;;;;16.20;9.25;;;;;;;-144.47;65.39;53273.22;5002817;28;20116;-72
2022/06/28 04:40:36;;;;;;;18.83;9.07;;;;;;;-144.47;65.98;53257.31;4994092;28;20503;-69
2022/06/28 04:43:02;;;;;;;14.98;9.35;;;;;;;-144.47;66.11;53243.41;4994384;28;20095;-71
2022/06/28 04:45:28;;;;;;;19.02;9.15;;;;;;;-144.47;66.48;53293.06;5006098;28;20065;-68
2022/06/28 04:47:54;;;;;;;16.17;9.63;;;;;;;-144.47;66.83;53283.13;5012672;28;20052;-70
2022/06/28 04:50:19;;;;;;;15.77;9.05;;;;;;;-144.47;66.87;53265.25;5000608;28;20328;-68
2022/06/28 04:52:44;;;;;;;17.98;10.50;;;;;;;-144.47;66.75;53263.28;5007838;28;20026;-69
2022/06/28 04:55:10;;;;;;;16.08;9.90;;;;;;;-144.47;67.57;53271.22;5001717;28;20026;-69
2022/06/28 04:57:35;;;;;;;16.92;10.23;;;;;;;-144.47;67.16;53267.25;5009514;28;20445;-68
2022/06/28 05:00:02;;;;;;;16.58;9.98;;;;;;;-144.47;66.65;53245.41;5007525;28;20038;-70
2022/06/28 05:02:27;;;;;;;15.63;9.88;;;;;;;-144.47;66.71;53259.31;5023404;28;20026;-69
2022/06/28 05:04:52;;;;;;;19.75;10.80;;;;;;;-144.47;66.77;53253.34;5013639;28;20196;-65
2022/06/28 05:07:18;;;;;;;21.63;10.65;;;;;;;-144.47;66.86;53271.22;4999241;28;20022;-67
2022/06/28 05:09:43;;;;;;;27.90;10.80;;;;;;;-144.47;66.33;53247.38;5003035;28;20384;-69
2022/06/28 05:12:09;;;;;;;17.98;10.77;;;;;;;-144.47;66.09;53247.38;5009641;28;20033;-70
2022/06/28 05:14:34;;;;;;;20.83;11.13;;;;;;;-144.47;66.66;53251.34;5003559;28;20040;-69
2022/06/28 05:17:01;;;;;;;19.90;10.90;;;;;;;-144.47;66.63;53287.13;5000232;28;20040;-68
2022/06/28 05:19:26;;;;;;;19.27;10.25;;;;;;;-144.47;66.90;53259.31;5000888;28;20082;-69
2022/06/28 05:21:52;;;;;;;17.80;10.85;;;;;;;-144.47;66.22;53277.19;5000335;28;20037;-69
2022/06/28 05:24:17;;;;;;;20.27;12.32;;;;;;;-144.47;66.42;53243.41;5000421;28;20532;-66
2022/06/28 05:26:43;;;;;;;18.83;11.38;;;;;;;-144.47;66.09;53279.16;5000545;28;20040;-70
2022/06/28 05:29:08;;;;;;;31.35;13.02;;;;;;;-144.47;66.54;53277.19;4999822;28;20022;-68
2022/06/28 05:31:35;;;;;;;20.73;11.98;;;;;;;-144.47;66.25;53289.09;4999939;28;20143;-69
2022/06/28 05:36:44;;;;;;;23.25;12.48;;;;;;;-144.47;66.25;53285.13;4986259;28;20073;-70
2022/06/28 05:39:10;;;;;;;20.25;11.13;;;;;;;-144.47;66.44;53291.09;4990184;28;20452;-65
2022/06/28 05:41:36;;;;;;;21.85;12.70;;;;;;;-144.47;65.89;53263.28;4990389;28;20026;-68
2022/06/28 05:44:01;;;;;;;21.35;12.07;;;;;;;-144.47;65.48;53241.44;4987119;28;20714;-67
2022/06/28 05:46:28;;;;;;;22.58;11.57;;;;;;;-144.47;65.74;53257.31;4989809;28;20026;-68
2022/06/28 05:48:54;;;;;;;25.67;12.75;;;;;;;-144.47;65.07;53269.22;4991029;28;20040;-69
2022/06/28 05:51:19;;;;;;;20.77;11.88;;;;;;;-144.47;65.60;53267.25;4990081;28;20416;-66
2022/06/28 05:53:44;;;;;;;26.48;13.98;;;;;;;-144.47;65.26;53267.25;4990278;28;20444;-67
2022/06/28 05:56:10;;;;;;;25.70;13.30;;;;;;;-144.47;64.94;53271.22;4990450;28;20030;-63
2022/06/28 05:58:35;;;;;;;23.58;13.23;;;;;;;-144.47;64.59;53271.22;4990303;28;20110;-67
2022/06/28 06:01:01;;;;;;;24.45;13.90;;;;;;;-144.47;64.10;53219.56;4990260;28;20052;-68
2022/06/28 06:03:26;;;;;;;24.65;13.48;;;;;;;-144.47;64.06;53247.38;4989271;28;20046;-69
2022/06/28 06:05:52;;;;;;;22.38;12.98;;;;;;;-144.47;63.43;53257.31;4960523;28;20034;-69
2022/06/28 06:08:17;;;;;;;27.52;14.15;;;;;;;-144.47;62.91;53231.50;4990395;28;20049;-66
2022/06/28 06:10:42;;;;;;;25.33;14.55;;;;;;;-144.47;62.53;53249.38;4978903;28;20113;-66
2022/06/28 06:13:08;;;;;;;32.00;15.23;;;;;;;-144.47;63.23;53193.75;4987291;28;20018;-67
2022/06/28 06:15:33;;;;;;;23.85;14.40;;;;;;;-144.47;62.37;53285.13;4989205;28;20096;-68
2022/06/28 06:17:59;;;;;;;29.40;15.05;;;;;;;-144.47;61.93;53229.50;4985640;28;20117;-67
2022/06/28 06:20:24;;;;;;;25.25;15.52;;;;;;;-144.47;61.91;53267.25;4978180;28;20610;-66
2022/06/28 06:22:50;;;;;;;26.00;14.18;;;;;;;-144.47;62.12;53271.22;4979276;28;20122;-66
2022/06/28 06:25:16;;;;;;;29.73;15.25;;;;;;;-144.47;61.55;53253.34;4985141;28;20046;-67
2022/06/28 06:27:42;;;;;;;30.40;15.10;;;;;;;-144.47;61.29;53215.59;4965732;28;20034;-66
2022/06/28 06:30:08;;;;;;;28.38;15.27;;;;;;;-144.47;61.44;53225.53;4989379;28;20093;-66
2022/06/28 06:32:34;;;;;;;41.28;15.73;;;;;;;-144.47;61.71;53199.72;4982990;28;20484;-66
2022/06/28 06:34:59;;;;;;;22.80;13.82;;;;;;;-144.47;60.69;53227.53;4976201;28;20084;-66
2022/06/28 06:37:25;;;;;;;26.33;13.55;;;;;;;-144.47;60.26;53205.66;4973188;28;20054;-65
2022/06/28 06:39:50;;;;;;;24.58;13.95;;;;;;;-144.47;60.25;53249.38;4986011;28;20499;-69
2022/06/28 06:42:19;;;;;;;21.92;13.48;;;;;;;-144.47;60.42;53233.47;4990202;28;20078;-66
2022/06/28 06:44:45;;;;;;;21.58;13.10;;;;;;;-144.47;59.08;53223.56;4992052;28;20113;-69
2022/06/28 06:47:10;;;;;;;23.27;12.65;;;;;;;-144.47;59.26;53219.56;4989639;28;20105;-67
2022/06/28 06:49:36;;;;;;;23.25;13.85;;;;;;;-144.47;59.29;53233.47;4990520;28;20027;-67
2022/06/28 06:52:02;;;;;;;23.67;13.20;;;;;;;-144.47;59.60;53239.44;4989596;28;20030;-68
2022/06/28 06:54:27;;;;;;;22.48;13.27;;;;;;;-144.47;59.52;53241.44;4989657;28;20101;-66
2022/06/28 06:56:52;;;;;;;21.80;13.10;;;;;;;-144.47;60.21;53267.25;4989158;28;20038;-68
2022/06/28 06:59:18;;;;;;;27.25;15.20;;;;;;;-144.47;58.52;53213.63;4989950;28;20104;-67
2022/06/28 07:01:44;;;;;;;24.73;14.73;;;;;;;-144.47;59.22;53261.28;4990455;28;20026;-69
2022/06/28 07:04:10;;;;;;;22.52;12.90;;;;;;;-144.47;58.26;53237.44;4989881;28;20038;-69
2022/06/28 07:06:36;;;;;;;21.83;13.63;;;;;;;-144.47;58.45;53219.56;4989499;28;20030;-68
2022/06/28 07:09:03;;;;;;;29.80;14.38;;;;;;;-144.47;58.21;53227.53;4975095;28;20034;-65
2022/06/28 07:11:28;;;;;;;22.05;12.52;;;;;;;-144.47;57.82;53257.31;4989156;28;20030;-65
2022/06/28 07:13:54;;;;;;;29.25;13.70;;;;;;;-144.47;57.34;53213.63;4990100;28;20267;-66
2022/06/28 07:16:19;;;;;;;22.80;12.60;;;;;;;-144.47;58.30;53269.22;4990737;28;20030;-66
2022/06/28 07:18:44;;;;;;;24.90;12.18;;;;;;;-144.47;58.79;53189.78;4992948;28;20030;-69
2022/06/28 07:21:11;;;;;;;20.95;11.68;;;;;;;-144.47;58.83;53229.50;4993427;28;20097;-67
2022/06/28 07:23:37;;;;;;;18.25;11.23;;;;;;;-144.47;58.93;53237.44;4991291;28;20029;-68
2022/06/28 07:26:03;;;;;;;21.00;11.65;;;;;;;-144.47;58.52;53221.56;4965700;28;20027;-67
2022/06/28 07:28:28;;;;;;;20.63;11.57;;;;;;;-144.47;58.69;53247.38;4989388;28;20076;-64
2022/06/28 07:30:53;;;;;;;21.80;11.05;;;;;;;-144.47;58.47;53251.34;4992807;28;20029;-67
2022/06/28 07:33:19;;;;;;;25.50;12.85;;;;;;;-144.47;57.79;53291.09;4992532;28;20127;-68
2022/06/28 07:35:45;;;;;;;20.55;13.20;;;;;;;-144.47;57.00;53233.47;4992981;28;20092;-65
2022/06/28 07:38:11;;;;;;;19.17;12.45;;;;;;;-144.47;56.34;53203.69;4992668;28;20030;-67
2022/06/28 07:40:37;;;;;;;20.20;13.20;;;;;;;-144.47;55.64;53225.53;4984907;28;20089;-69
2022/06/28 07:43:02;;;;;;;20.38;11.93;;;;;;;-144.47;55.82;53249.38;4984696;28;20046;-67
2022/06/28 07:45:28;;;;;;;18.52;11.32;;;;;;;-144.47;55.83;53233.47;4976777;28;20102;-67
2022/06/28 07:47:54;;;;;;;23.05;11.85;;;;;;;-144.47;55.54;53183.81;4989214;28;20072;-66
2022/06/28 07:53:06;;;;;;;19.92;11.98;;;;;;;-144.47;54.39;53187.78;4992730;28;20030;-67
2022/06/28 07:55:32;;;;;;;19.17;11.20;;;;;;;-144.47;54.65;53217.59;4992653;28;20396;-66
2022/06/28 07:57:58;;;;;;;19.92;10.48;;;;;;;-144.47;54.83;53223.56;4991811;28;20041;-67
2022/06/28 08:00:24;;;;;;;27.52;10.55;;;;;;;-144.47;54.49;53257.31;4992107;28;20038;-66
2022/06/28 08:02:50;;;;;;;22.02;10.57;;;;;;;-144.47;54.63;53251.34;4992648;28;20026;-64
2022/06/28 08:05:16;;;;;;;19.13;10.25;;;;;;;-144.47;53.70;53267.25;4992266;28;20490;-67
2022/06/28 08:07:42;;;;;;;21.73;10.30;;;;;;;-144.47;53.71;53213.63;4991863;28;20468;-67
2022/06/28 08:10:09;;;;;;;14.65;8.77;;;;;;;-144.47;53.27;53231.50;4978999;28;20029;-65
2022/06/28 08:12:35;;;;;;;15.88;9.82;;;;;;;-144.47;54.23;53231.50;4990846;28;20060;-67
2022/06/28 08:15:01;;;;;;;15.10;8.90;;;;;;;-144.47;54.03;53247.38;4992357;28;20298;-64
2022/06/28 08:17:27;;;;;;;18.50;9.23;;;;;;;-144.47;53.39;53191.78;4991628;28;20034;-67
2022/06/28 08:19:53;;;;;;;15.02;9.38;;;;;;;-144.47;53.64;53223.56;4991750;28;20103;-67
2022/06/28 08:22:18;;;;;;;20.23;9.63;;;;;;;-144.47;53.31;53229.50;4989517;28;20479;-66
2022/06/28 08:24:43;;;;;;;21.67;9.35;;;;;;;-144.47;52.31;53205.66;4988207;28;20022;-68
2022/06/28 08:27:09;;;;;;;16.90;9.27;;;;;;;-144.47;51.90;53187.78;4990806;28;20038;-68
2022/06/28 08:29:34;;;;;;;24.48;10.32;;;;;;;-144.47;51.03;53215.59;4978036;28;20064;-67
2022/06/28 08:32:01;;;;;;;17.77;10.15;;;;;;;-144.47;50.81;53175.88;4987722;28;20085;-68
2022/06/28 08:34:27;;;;;;;15.25;9.45;;;;;;;-144.47;49.56;53211.63;4979640;28;20106;-66
2022/06/28 08:36:53;;;;;;;13.05;9.10;;;;;;;-144.47;48.37;53215.59;4990572;28;20560;-66
2022/06/28 08:39:18;;;;;;;14.02;8.05;;;;;;;-144.47;48.64;53219.56;4991976;28;20088;-68
2022/06/28 08:41:46;;;;;;;15.15;8.50;;;;;;;-144.47;47.88;53243.41;4979179;28;20072;-69
2022/06/28 08:44:13;;;;;;;13.77;7.95;;;;;;;-144.47;48.91;53191.78;4974180;28;20034;-68
2022/06/28 08:46:39;;;;;;;17.88;8.98;;;;;;;-144.47;49.21;53201.69;4990814;28;20034;-67
2022/06/28 08:49:20;;;;;;;14.82;8.00;;;;;;;-144.47;49.30;53183.81;4991317;28;20483;-67
2022/06/28 08:51:46;;;;;;;18.27;7.47;;;;;;;-144.47;48.79;53189.78;4991358;28;20060;-68
2022/06/28 08:54:12;;;;;;;14.20;8.07;;;;;;;-144.47;48.01;53175.88;4991015;28;20388;-64
2022/06/28 08:56:39;;;;;;;15.25;6.28;;;;;;;-144.47;47.25;53191.78;4990611;28;20391;-68
2022/06/28 08:59:06;;;;;;;16.42;6.90;;;;;;;-144.47;48.24;53181.84;4991726;28;20033;-70
2022/06/28 09:01:32;;;;;;;14.77;6.85;;;;;;;-144.47;47.87;53171.91;4991220;28;20108;-65
2022/06/28 09:04:00;;;;;;;18.70;6.43;;;;;;;-144.47;48.36;53183.81;4991299;28;20054;-65
2022/06/28 09:06:25;;;;;;;11.93;6.15;;;;;;;-144.47;48.74;53237.44;4989484;28;20119;-67
2022/06/28 09:08:50;;;;;;;11.23;5.88;;;;;;;-144.47;48.30;53175.88;4986027;28;20088;-65
2022/06/28 09:11:16;;;;;;;12.82;6.07;;;;;;;-144.47;47.98;53175.88;4986903;28;20596;-66
2022/06/28 09:13:41;;;;;;;16.65;6.28;;;;;;;-144.47;47.25;53199.72;4990619;28;20030;-65
2022/06/28 09:16:07;;;;;;;9.38;4.75;;;;;;;-144.47;46.09;53191.78;4984309;28;20032;-67
2022/06/28 09:18:35;;;;;;;11.10;4.53;;;;;;;-144.47;45.56;53177.88;4990534;28;20026;-65
2022/06/28 09:21:04;;;;;;;12.23;5.07;;;;;;;-144.47;45.21;53199.72;4990666;28;20030;-67
2022/06/28 09:23:32;;;;;;;12.77;4.20;;;;;;;-144.47;44.89;53156.00;4970838;28;20030;-66
2022/06/28 09:26:06;;;;;;;9.13;4.25;;;;;;;-144.47;44.91;53197.72;4990508;28;20280;-68
2022/06/28 09:28:32;;;;;;;9.82;4.35;;;;;;;-144.47;45.33;53233.47;4991062;28;20090;-68
2022/06/28 09:31:28;;;;;;;11.20;4.60;;;;;;;-144.47;45.05;53193.75;4990769;28;20507;-67
2022/06/28 09:34:02;;;;;;;9.90;4.30;;;;;;;-144.47;44.14;53211.63;4972540;28;20037;-67
2022/06/28 09:36:30;;;;;;;9.93;4.82;;;;;;;-144.47;43.94;53199.72;4990302;28;20052;-66
2022/06/28 09:38:57;;;;;;;14.27;5.40;;;;;;;-144.47;43.20;53179.84;4990735;28;20033;-66
2022/06/28 09:41:28;;;;;;;9.88;4.78;;;;;;;-144.47;43.53;53169.91;4990155;28;20077;-69
2022/06/28 09:43:56;;;;;;;11.40;4.22;;;;;;;-144.47;43.78;53189.78;4980907;28;20462;-68
2022/06/28 09:46:23;;;;;;;9.95;3.70;;;;;;;-144.47;42.72;53183.81;4979308;28;20033;-68
2022/06/28 09:48:50;;;;;;;9.02;3.97;;;;;;;-144.47;42.89;53175.88;4990874;28;20034;-69
2022/06/28 09:51:22;;;;;;;10.18;3.90;;;;;;;-144.47;42.93;53195.75;4990492;28;20061;-68
2022/06/28 09:54:12;;;;;;;7.93;4.20;;;;;;;-144.47;42.27;53163.97;4990694;28;20109;-68
2022/06/28 09:56:47;;;;;;;13.43;3.92;;;;;;;-144.47;42.11;53154.03;4990564;28;20101;-69
2022/06/28 09:59:13;;;;;;;8.10;3.97;;;;;;;-144.47;41.53;53207.66;4990725;28;20050;-66
2022/06/28 10:01:39;;;;;;;10.35;4.05;;;;;;;-144.47;41.60;53156.00;4990823;28;20054;-67
2022/06/28 10:04:05;;;;;;;11.65;4.75;;;;;;;-144.47;42.17;53191.78;4989640;28;20057;-67
2022/06/28 10:06:31;;;;;;;13.30;6.15;;;;;;;-144.47;42.30;53165.94;4989941;28;20085;-69
2022/06/28 10:08:58;;;;;;;8.30;3.97;;;;;;;-144.47;41.90;53199.72;4990228;28;20022;-70
2022/06/28 10:11:23;;;;;;;11.00;4.00;;;;;;;-144.47;41.34;53160.00;4989721;28;20034;-66
2022/06/28 10:16:38;;;;;;;8.20;4.15;;;;;;;-144.47;40.46;53187.78;4989911;28;20037;-68
2022/06/28 10:19:05;;;;;;;10.27;4.88;;;;;;;-144.47;40.51;53173.88;4989986;28;20061;-68
2022/06/28 10:21:52;;;;;;;14.40;4.60;;;;;;;-144.47;40.33;53173.88;4972282;28;20056;-68
2022/06/28 10:24:18;;;;;;;11.65;3.65;;;;;;;-144.47;40.66;53185.81;4979825;28;20060;-69
2022/06/28 10:26:45;;;;;;;15.77;4.05;;;;;;;-144.47;40.04;53161.97;4974910;28;20027;-66
2022/06/28 10:29:13;;;;;;;13.95;5.68;;;;;;;-144.47;39.81;53173.88;4990149;28;20033;-65
2022/06/28 10:31:39;;;;;;;10.60;4.07;;;;;;;-144.47;40.40;53197.72;4990838;28;20026;-66
2022/06/28 10:34:08;;;;;;;12.80;4.22;;;;;;;-144.47;39.76;53197.72;4976888;28;20072;-68
2022/06/28 10:36:52;;;;;;;11.40;5.18;;;;;;;-144.47;40.40;53154.03;4982514;28;20042;-72
2022/06/28 10:39:22;;;;;;;10.38;4.45;;;;;;;-144.47;39.86;53179.84;4990107;28;20026;-70
2022/06/28 10:41:49;;;;;;;14.80;4.75;;;;;;;-144.47;39.17;53183.81;4978147;28;20052;-67
2022/06/28 10:44:31;;;;;;;7.20;4.03;;;;;;;-144.47;38.07;53160.00;4990204;28;20037;-66
2022/06/28 10:47:05;;;;;;;12.85;4.45;;;;;;;-144.47;38.69;53130.19;4990401;28;20061;-68
2022/06/28 10:49:45;;;;;;;8.80;4.05;;;;;;;-144.47;38.03;53158.00;4960426;28;20026;-69
2022/06/28 10:52:14;;;;;;;10.05;4.07;;;;;;;-144.47;38.41;53150.06;4997144;28;20442;-69
2022/06/28 10:55:04;;;;;;;8.23;3.78;;;;;;;-144.47;38.39;53183.81;4997961;28;20443;-67
2022/06/28 10:57:32;;;;;;;12.13;4.55;;;;;;;-144.47;37.99;53156.00;5000044;28;20045;-68
2022/06/28 11:00:01;;;;;;;9.82;4.90;;;;;;;-144.47;38.26;53118.28;4997322;28;20022;-68
2022/06/28 11:02:44;;;;;;;9.65;4.72;;;;;;;-144.47;38.02;53167.94;4997999;28;20022;-68
2022/06/28 11:05:10;;;;;;;25.08;7.45;;;;;;;-144.47;37.66;53165.94;5002635;28;20253;-68
2022/06/28 11:07:39;;;;;;;11.43;4.70;;;;;;;-144.47;37.31;53169.91;4993812;28;20027;-69
2022/06/28 11:10:17;;;;;;;15.70;5.70;;;;;;;-144.47;38.47;53150.06;4979451;28;20384;-68
2022/06/28 11:12:43;;;;;;;17.02;4.15;;;;;;;-144.47;38.20;53150.06;4975482;28;20027;-70
2022/06/28 11:15:10;;;;;;;10.85;4.05;;;;;;;-144.47;36.63;53181.84;4991691;28;20026;-66
2022/06/28 11:17:37;;;;;;;7.18;3.42;;;;;;;-144.47;36.38;53138.13;4998695;28;20035;-69